Time;durP1;ratioP1;P1;durP2;ratioP2;P2;SDS_P1;SDS_P2;PMS_P1;PMS_P2;Temp;Humidity;BMP_temperature;BMP_pressure;BME280_temperature;BME280_humidity;BME280_pressure;Samples;Min_cycle;Max_cycle;Signal;HPM_P1;HPM_P2
2022/09/23 00:01:03;;;;;;;2.53;1.05;;;13.00;49.00;;;;;;2313886;55;20937;-69
2022/09/23 00:03:32;;;;;;;3.42;1.30;;;13.00;49.00;;;;;;2316246;55;20985;-69
2022/09/23 00:06:03;;;;;;;2.42;1.02;;;13.00;49.10;;;;;;2356681;54;21029;-69
2022/09/23 00:08:30;;;;;;;2.78;1.12;;;13.00;49.30;;;;;;2315472;55;20929;-70
2022/09/23 00:11:02;;;;;;;2.35;1.10;;;12.90;49.10;;;;;;2307685;55;20934;-69
2022/09/23 00:13:28;;;;;;;2.33;1.25;;;12.90;49.20;;;;;;2298611;54;21455;-70
2022/09/23 00:15:56;;;;;;;2.90;1.20;;;12.90;49.30;;;;;;2315286;55;21000;-70
2022/09/23 00:18:23;;;;;;;2.42;1.05;;;12.90;49.40;;;;;;2321878;54;20949;-69
2022/09/23 00:20:49;;;;;;;2.25;1.12;;;12.90;49.40;;;;;;2315306;55;21960;-71
2022/09/23 00:23:19;;;;;;;2.22;1.10;;;12.80;49.90;;;;;;2314777;55;22074;-71
2022/09/23 00:25:53;;;;;;;3.55;1.00;;;12.80;49.50;;;;;;2355694;54;21529;-70
2022/09/23 00:28:20;;;;;;;3.33;0.98;;;12.80;49.50;;;;;;2309611;54;21048;-69
2022/09/23 00:30:46;;;;;;;3.00;1.25;;;12.80;49.50;;;;;;2315675;55;20980;-70
2022/09/23 00:33:12;;;;;;;3.03;1.30;;;12.80;49.50;;;;;;2312818;55;21254;-70
2022/09/23 00:35:39;;;;;;;2.72;1.15;;;12.70;49.50;;;;;;2315092;55;20988;-69
2022/09/23 00:38:05;;;;;;;2.60;1.12;;;12.70;50.10;;;;;;2315673;55;21017;-70
2022/09/23 00:40:35;;;;;;;3.53;1.40;;;12.70;49.50;;;;;;2314633;55;21024;-69
2022/09/23 00:43:01;;;;;;;3.05;1.30;;;12.70;49.60;;;;;;2344012;54;20988;-69
2022/09/23 00:45:45;;;;;;;2.72;1.20;;;12.70;49.60;;;;;;2339525;54;21822;-70
2022/09/23 00:48:15;;;;;;;3.35;1.27;;;12.70;49.90;;;;;;2312428;55;21068;-71
2022/09/23 00:50:44;;;;;;;2.90;1.20;;;12.70;49.70;;;;;;2292264;54;20981;-69
2022/09/23 00:53:12;;;;;;;2.47;1.17;;;12.60;49.70;;;;;;2314273;55;21025;-71
2022/09/23 00:55:48;;;;;;;3.12;1.20;;;12.60;49.70;;;;;;2317097;55;21433;-69
2022/09/23 00:58:16;;;;;;;2.80;1.30;;;12.60;49.80;;;;;;2314974;55;20944;-69
2022/09/23 01:00:45;;;;;;;2.50;1.10;;;12.60;49.80;;;;;;2319916;55;21021;-71
2022/09/23 01:03:11;;;;;;;2.37;1.20;;;12.50;49.80;;;;;;2295015;54;21566;-70
2022/09/23 01:05:38;;;;;;;2.42;1.30;;;12.50;49.80;;;;;;2315356;55;20985;-69
2022/09/23 01:08:05;;;;;;;2.67;1.12;;;12.50;49.80;;;;;;2296088;54;20998;-70
2022/09/23 01:15:52;;;;;;;2.33;1.00;;;12.50;49.80;;;;;;2314027;55;20986;-70
2022/09/23 01:20:10;;;;;;;2.42;1.15;;;12.50;49.90;;;;;;2311724;55;21013;-70
2022/09/23 01:26:29;;;;;;;1.90;0.90;;;12.40;49.90;;;;;;2316679;54;20985;-69
2022/09/23 01:29:53;;;;;;;2.55;1.02;;;12.30;49.70;;;;;;2315027;55;21497;-70
2022/09/23 01:33:52;;;;;;;2.55;1.00;;;12.30;49.80;;;;;;2307495;55;21558;-69
2022/09/23 01:36:28;;;;;;;2.00;0.90;;;12.20;49.80;;;;;;2503341;55;21674;-69
2022/09/23 01:39:01;;;;;;;2.58;1.20;;;12.20;49.60;;;;;;2315838;55;21017;-69
2022/09/23 01:41:52;;;;;;;2.87;1.30;;;12.20;49.60;;;;;;2338322;55;21016;-70
2022/09/23 01:44:37;;;;;;;3.35;1.40;;;12.10;49.80;;;;;;2309202;55;21869;-69
2022/09/23 01:47:13;;;;;;;2.78;1.30;;;12.10;49.90;;;;;;2311156;55;21292;-69
2022/09/23 01:54:19;;;;;;;2.83;1.35;;;12.10;50.00;;;;;;2314663;54;21025;-70
2022/09/23 01:57:09;;;;;;;2.60;1.20;;;12.00;49.70;;;;;;2300506;54;21450;-69
2022/09/23 01:59:50;;;;;;;3.92;1.50;;;12.00;49.70;;;;;;2316740;55;20977;-69
2022/09/23 02:02:19;;;;;;;3.08;1.55;;;12.00;49.80;;;;;;2311769;55;20994;-69
2022/09/23 02:04:53;;;;;;;3.70;1.40;;;11.90;49.70;;;;;;2300860;55;21148;-70
2022/09/23 02:07:43;;;;;;;2.35;1.12;;;11.90;49.80;;;;;;2302370;54;21013;-69
2022/09/23 02:10:17;;;;;;;2.97;1.17;;;11.90;50.50;;;;;;2414927;54;20965;-70
2022/09/23 02:12:45;;;;;;;3.60;1.37;;;11.90;49.80;;;;;;2310760;55;21056;-70
2022/09/23 02:15:20;;;;;;;3.35;1.33;;;11.90;49.80;;;;;;2296036;54;21017;-68
2022/09/23 02:17:50;;;;;;;3.35;1.30;;;11.90;50.50;;;;;;2291105;54;21018;-70
2022/09/23 02:20:20;;;;;;;2.67;1.20;;;11.80;49.90;;;;;;2309305;54;21470;-69
2022/09/23 02:23:00;;;;;;;3.50;1.30;;;11.80;49.90;;;;;;2302139;55;21483;-69
2022/09/23 02:25:34;;;;;;;3.53;1.30;;;11.80;49.90;;;;;;2298028;54;21709;-70
2022/09/23 02:29:32;;;;;;;4.82;1.40;;;11.80;49.90;;;;;;2452165;54;21405;-69
2022/09/23 02:32:07;;;;;;;2.12;1.10;;;11.80;50.10;;;;;;2433451;54;21911;-70
2022/09/23 02:34:41;;;;;;;3.28;1.00;;;11.70;49.90;;;;;;2400475;54;21004;-70
2022/09/23 02:38:26;;;;;;;4.10;1.02;;;11.70;50.10;;;;;;2314236;55;21112;-69
2022/09/23 02:41:03;;;;;;;2.65;0.93;;;11.70;50.10;;;;;;2296169;55;20985;-68
2022/09/23 02:44:17;;;;;;;2.17;1.00;;;11.60;49.80;;;;;;2315540;55;20952;-70
2022/09/23 02:46:43;;;;;;;2.20;1.00;;;11.60;49.90;;;;;;2320624;54;21053;-70
2022/09/23 02:49:25;;;;;;;2.40;1.00;;;11.60;49.90;;;;;;2314550;55;20949;-70
2022/09/23 02:51:55;;;;;;;1.98;0.90;;;11.50;50.00;;;;;;2441512;54;21452;-70
2022/09/23 02:54:26;;;;;;;2.70;1.10;;;11.50;50.00;;;;;;2315162;55;21299;-70
2022/09/23 02:56:56;;;;;;;2.80;1.15;;;11.50;50.10;;;;;;2304910;55;21089;-70
2022/09/23 02:59:23;;;;;;;4.97;1.48;;;11.50;50.10;;;;;;2307266;55;21005;-69
2022/09/23 03:02:58;;;;;;;3.55;1.98;;;11.50;50.10;;;;;;2317396;55;21374;-69
2022/09/23 03:05:30;;;;;;;3.85;1.70;;;11.40;50.30;;;;;;2312200;55;21026;-69
2022/09/23 03:08:22;;;;;;;3.70;1.37;;;11.40;50.00;;;;;;2297654;55;21012;-69
2022/09/23 03:10:57;;;;;;;2.40;1.12;;;11.40;50.10;;;;;;2406308;54;20981;-68
2022/09/23 03:14:16;;;;;;;2.87;1.23;;;11.30;50.00;;;;;;2316284;55;21762;-70
2022/09/23 03:18:30;;;;;;;2.17;0.98;;;11.30;50.00;;;;;;2492339;54;20961;-69
2022/09/23 03:21:32;;;;;;;1.90;0.90;;;11.30;50.50;;;;;;2301887;55;20970;-69
2022/09/23 03:23:59;;;;;;;1.58;0.80;;;11.30;50.30;;;;;;2311838;55;21088;-69
2022/09/23 03:26:33;;;;;;;1.87;0.60;;;11.30;50.10;;;;;;2297451;55;20942;-69
2022/09/23 03:29:01;;;;;;;2.60;1.00;;;11.20;50.20;;;;;;2367600;54;21365;-70
2022/09/23 03:31:28;;;;;;;2.28;0.98;;;11.20;50.20;;;;;;2306173;54;21025;-69
2022/09/23 03:33:56;;;;;;;2.50;1.10;;;11.20;50.20;;;;;;2340797;55;21021;-69
2022/09/23 03:46:00;;;;;;;1.83;0.80;;;11.10;50.30;;;;;;2314661;55;21013;-70
2022/09/23 03:48:26;;;;;;;3.03;0.88;;;11.10;50.30;;;;;;2330909;54;21022;-71
2022/09/23 03:50:53;;;;;;;1.58;0.73;;;11.10;50.00;;;;;;2315823;55;20973;-70
2022/09/23 03:53:20;;;;;;;2.33;0.95;;;11.10;50.20;;;;;;2316074;55;21001;-70
2022/09/23 03:55:47;;;;;;;3.03;0.80;;;11.00;50.20;;;;;;2295579;55;21020;-69
2022/09/23 03:58:13;;;;;;;1.98;0.95;;;11.00;50.30;;;;;;2338972;54;20957;-69
2022/09/23 04:00:40;;;;;;;2.20;1.00;;;11.00;50.40;;;;;;2315069;55;20976;-69
2022/09/23 04:03:06;;;;;;;1.95;0.90;;;11.00;50.40;;;;;;2299655;54;20933;-70
2022/09/23 04:05:36;;;;;;;2.15;0.80;;;11.00;50.40;;;;;;2311461;55;21016;-71
2022/09/23 04:08:03;;;;;;;4.43;0.90;;;11.00;50.40;;;;;;2343352;54;21118;-70
2022/09/23 04:10:29;;;;;;;2.00;0.88;;;11.00;50.40;;;;;;2295899;55;20929;-69
2022/09/23 04:12:56;;;;;;;2.08;0.82;;;10.90;50.40;;;;;;2305495;54;21295;-70
2022/09/23 04:15:24;;;;;;;2.28;0.90;;;10.90;50.60;;;;;;2348292;54;20972;-68
2022/09/23 04:18:11;;;;;;;2.67;0.88;;;10.90;50.60;;;;;;2297261;54;21045;-69
2022/09/23 04:20:39;;;;;;;1.70;0.70;;;10.90;50.90;;;;;;2312821;55;20941;-69
2022/09/23 04:23:05;;;;;;;1.70;0.73;;;10.90;50.70;;;;;;2314332;55;21029;-69
2022/09/23 04:25:32;;;;;;;2.17;0.90;;;10.90;50.70;;;;;;2313587;55;20972;-68
2022/09/23 04:27:58;;;;;;;2.40;0.98;;;10.90;50.70;;;;;;2331380;54;21447;-70
2022/09/23 04:30:25;;;;;;;2.42;0.70;;;10.90;50.70;;;;;;2297824;54;21030;-70
2022/09/23 04:32:51;;;;;;;3.50;0.70;;;10.90;50.70;;;;;;2305060;54;20953;-69
2022/09/23 04:35:18;;;;;;;2.10;0.70;;;10.90;50.80;;;;;;2305996;54;20973;-69
2022/09/23 04:37:47;;;;;;;1.80;0.82;;;10.90;50.90;;;;;;2342130;54;21052;-69
2022/09/23 04:40:13;;;;;;;1.87;0.80;;;10.90;50.90;;;;;;2363725;54;21009;-69
2022/09/23 04:42:40;;;;;;;1.67;0.80;;;10.90;50.90;;;;;;2298401;55;21013;-69
2022/09/23 04:45:07;;;;;;;1.87;0.80;;;10.90;50.90;;;;;;2312372;55;20964;-70
2022/09/23 04:47:35;;;;;;;2.15;1.00;;;10.90;51.00;;;;;;2315416;55;21873;-69
2022/09/23 04:50:01;;;;;;;2.12;0.93;;;10.90;51.00;;;;;;2315287;55;20945;-69
2022/09/23 04:52:30;;;;;;;2.17;0.88;;;10.80;50.90;;;;;;2314921;55;21798;-70
2022/09/23 04:54:56;;;;;;;2.30;0.80;;;10.80;51.10;;;;;;2314931;55;21036;-71
2022/09/23 04:57:23;;;;;;;1.73;0.82;;;10.80;51.20;;;;;;2435458;54;21025;-70
2022/09/23 04:59:49;;;;;;;1.65;0.68;;;10.80;51.20;;;;;;2315553;55;20937;-69
2022/09/23 05:02:16;;;;;;;1.98;0.93;;;10.90;51.30;;;;;;2314755;55;21028;-70
2022/09/23 05:04:42;;;;;;;1.90;0.88;;;10.80;51.30;;;;;;2315174;55;20938;-68
2022/09/23 05:07:09;;;;;;;2.50;1.00;;;10.90;51.40;;;;;;2315531;55;20961;-70
2022/09/23 05:09:37;;;;;;;2.00;0.95;;;10.90;51.40;;;;;;2310984;55;21029;-69
2022/09/23 05:12:03;;;;;;;4.43;0.80;;;10.90;51.40;;;;;;2300379;54;21331;-69
2022/09/23 05:14:30;;;;;;;2.00;0.90;;;10.90;51.40;;;;;;2323319;54;20997;-70
2022/09/23 05:16:56;;;;;;;1.65;0.70;;;10.90;51.40;;;;;;2315291;55;20972;-70
2022/09/23 05:19:23;;;;;;;1.95;1.00;;;10.90;51.50;;;;;;2314978;55;20990;-69
2022/09/23 05:21:49;;;;;;;2.05;0.90;;;10.90;51.50;;;;;;2314892;55;20981;-70
2022/09/23 05:24:15;;;;;;;2.08;0.90;;;10.90;51.50;;;;;;2313522;55;20968;-70
2022/09/23 05:26:42;;;;;;;2.10;0.98;;;10.90;51.50;;;;;;2366325;54;20957;-70
2022/09/23 05:29:11;;;;;;;1.60;0.82;;;10.90;51.50;;;;;;2337693;54;21004;-69
2022/09/23 05:31:38;;;;;;;2.45;1.00;;;11.00;51.60;;;;;;2320520;54;20957;-70
2022/09/23 05:34:05;;;;;;;2.62;1.15;;;11.00;51.70;;;;;;2314931;55;20956;-69
2022/09/23 05:36:34;;;;;;;2.70;1.20;;;11.00;51.70;;;;;;2315470;55;21264;-71
2022/09/23 05:39:03;;;;;;;3.08;1.40;;;11.00;51.70;;;;;;2312046;55;21532;-70
2022/09/23 05:41:30;;;;;;;2.72;1.58;;;11.00;51.70;;;;;;2315474;55;21748;-70
2022/09/23 05:43:56;;;;;;;3.55;1.45;;;11.00;51.80;;;;;;2314872;55;20969;-68
2022/09/23 05:46:26;;;;;;;2.25;1.20;;;11.00;51.80;;;;;;2306249;55;21432;-68
2022/09/23 05:48:56;;;;;;;3.22;1.10;;;11.00;51.90;;;;;;2318636;54;20957;-71
2022/09/23 05:51:30;;;;;;;2.65;1.00;;;11.00;52.00;;;;;;2306813;55;21678;-70
2022/09/23 05:54:03;;;;;;;3.45;1.10;;;11.10;52.10;;;;;;2314258;55;21025;-70
2022/09/23 05:56:36;;;;;;;2.47;0.95;;;11.00;52.10;;;;;;2309405;55;21484;-70
2022/09/23 05:59:46;;;;;;;4.05;0.98;;;11.10;52.20;;;;;;2316936;54;20961;-69
2022/09/23 06:02:13;;;;;;;2.42;1.00;;;11.10;52.40;;;;;;2366743;54;20993;-69
2022/09/23 06:04:55;;;;;;;1.77;0.82;;;11.10;52.10;;;;;;2291639;55;21079;-70
2022/09/23 06:07:22;;;;;;;2.35;0.93;;;11.10;52.50;;;;;;2315515;55;21023;-71
2022/09/23 06:09:52;;;;;;;3.65;1.20;;;11.20;52.40;;;;;;2292881;55;22016;-70
2022/09/23 06:12:20;;;;;;;2.72;1.62;;;11.20;52.40;;;;;;2549603;54;20949;-68
2022/09/23 06:14:47;;;;;;;3.55;2.40;;;11.20;52.50;;;;;;2312797;55;21801;-70
2022/09/23 06:17:25;;;;;;;4.00;2.80;;;11.30;52.70;;;;;;2309328;55;21474;-71
2022/09/23 06:19:51;;;;;;;4.85;3.08;;;11.30;52.90;;;;;;2312339;55;20965;-69
2022/09/23 06:22:45;;;;;;;5.53;3.62;;;11.30;52.70;;;;;;2311677;55;21024;-70
2022/09/23 06:25:12;;;;;;;4.55;3.10;;;11.40;53.20;;;;;;2305021;55;21008;-70
2022/09/23 06:27:39;;;;;;;5.05;3.70;;;11.40;52.80;;;;;;2322187;54;21364;-69
2022/09/23 06:30:07;;;;;;;5.05;3.17;;;11.50;53.00;;;;;;2300425;55;20957;-71
2022/09/23 06:32:56;;;;;;;3.97;2.62;;;11.50;53.10;;;;;;2315317;54;21986;-69
2022/09/23 06:35:25;;;;;;;6.20;2.58;;;11.60;53.60;;;;;;2310124;55;20945;-70
2022/09/23 06:37:53;;;;;;;4.50;2.62;;;11.60;53.30;;;;;;2312036;55;21080;-71
2022/09/23 06:40:21;;;;;;;4.07;2.22;;;11.70;53.40;;;;;;2314912;55;21006;-69
2022/09/23 06:42:57;;;;;;;3.35;2.00;;;11.70;53.40;;;;;;2316572;55;20977;-69
2022/09/23 06:45:23;;;;;;;3.40;1.90;;;11.80;53.60;;;;;;2415901;54;21024;-69
2022/09/23 06:47:55;;;;;;;4.43;1.52;;;11.80;53.50;;;;;;2313560;55;20929;-70
2022/09/23 06:50:22;;;;;;;3.33;1.87;;;11.80;53.50;;;;;;2349141;54;21730;-71
2022/09/23 06:52:54;;;;;;;6.15;1.80;;;11.90;53.50;;;;;;2305560;55;20969;-70
2022/09/23 06:55:26;;;;;;;3.85;2.08;;;12.00;53.70;;;;;;2301552;55;20957;-70
2022/09/23 06:57:53;;;;;;;3.95;2.05;;;12.00;53.70;;;;;;2347777;54;21064;-71
2022/09/23 07:00:20;;;;;;;3.47;2.00;;;12.10;53.80;;;;;;2315506;55;20981;-71
2022/09/23 07:02:46;;;;;;;3.22;1.77;;;12.10;53.70;;;;;;2314899;55;21041;-70
2022/09/23 07:05:16;;;;;;;3.22;1.73;;;12.20;53.80;;;;;;2359609;54;20997;-69
2022/09/23 07:07:45;;;;;;;4.18;1.90;;;12.30;53.80;;;;;;2317045;55;20996;-70
2022/09/23 07:10:11;;;;;;;4.32;2.67;;;12.30;53.90;;;;;;2311345;55;20985;-70
2022/09/23 07:12:37;;;;;;;4.95;3.10;;;12.40;54.00;;;;;;2314917;55;20921;-70
2022/09/23 07:15:04;;;;;;;6.22;3.53;;;12.50;54.00;;;;;;2312672;55;20945;-70
2022/09/23 07:17:30;;;;;;;4.47;2.90;;;12.50;54.10;;;;;;2293772;55;21079;-70
2022/09/23 07:20:12;;;;;;;3.87;2.50;;;12.60;54.10;;;;;;2308143;55;21027;-71
2022/09/23 07:22:38;;;;;;;3.92;2.37;;;12.70;54.50;;;;;;2309096;55;21461;-71
2022/09/23 07:25:05;;;;;;;4.12;2.10;;;12.70;54.10;;;;;;2316207;55;21000;-71
2022/09/23 07:27:32;;;;;;;4.30;2.08;;;12.80;54.30;;;;;;2314169;55;21021;-70
2022/09/23 07:29:59;;;;;;;6.03;2.50;;;12.80;54.30;;;;;;2547879;54;20971;-71
2022/09/23 07:32:26;;;;;;;4.43;1.92;;;12.90;54.30;;;;;;2296463;54;21878;-69
2022/09/23 07:34:52;;;;;;;4.93;2.08;;;13.00;54.40;;;;;;2327751;54;21005;-70
2022/09/23 07:37:20;;;;;;;3.80;2.08;;;13.10;54.50;;;;;;2314687;55;20981;-69
2022/09/23 07:39:52;;;;;;;3.70;2.25;;;13.20;54.60;;;;;;2312384;55;20976;-69
2022/09/23 07:42:18;;;;;;;4.62;2.33;;;13.30;54.70;;;;;;2354723;54;21120;-69
2022/09/23 07:44:48;;;;;;;5.87;2.53;;;13.40;54.80;;;;;;2314560;55;20977;-69
2022/09/23 07:47:15;;;;;;;3.58;1.92;;;13.50;55.60;;;;;;2301552;55;21018;-70
2022/09/23 07:49:42;;;;;;;4.47;2.70;;;13.50;54.90;;;;;;2296396;55;20981;-69
2022/09/23 07:52:08;;;;;;;3.80;2.25;;;13.60;55.00;;;;;;2309301;55;21453;-70
2022/09/23 07:54:36;;;;;;;4.28;2.50;;;13.70;55.10;;;;;;2310697;54;21074;-70
2022/09/23 07:57:02;;;;;;;4.07;1.85;;;13.80;55.20;;;;;;2302412;55;20945;-70
2022/09/23 07:59:28;;;;;;;3.85;1.90;;;13.90;55.30;;;;;;2295982;54;21518;-70
2022/09/23 08:01:56;;;;;;;4.47;1.80;;;14.00;55.30;;;;;;2299818;54;21041;-71
2022/09/23 08:04:27;;;;;;;4.53;2.03;;;14.10;55.30;;;;;;2312180;55;20965;-70
2022/09/23 08:06:59;;;;;;;4.65;1.67;;;14.20;55.30;;;;;;2301908;55;20961;-70
2022/09/23 08:09:30;;;;;;;3.12;1.55;;;14.40;55.30;;;;;;2310531;55;20921;-71
2022/09/23 08:12:00;;;;;;;7.18;1.45;;;14.50;55.30;;;;;;2316529;55;21493;-69
2022/09/23 08:14:26;;;;;;;3.97;1.52;;;14.50;55.10;;;;;;2318906;55;20977;-70
2022/09/23 08:16:53;;;;;;;2.97;1.30;;;14.60;55.10;;;;;;2296123;54;20967;-70
2022/09/23 08:19:20;;;;;;;2.90;1.48;;;14.70;55.10;;;;;;2314208;54;20957;-71
2022/09/23 08:21:46;;;;;;;3.15;1.50;;;14.80;55.10;;;;;;2310867;55;21045;-70
2022/09/23 08:24:17;;;;;;;3.28;1.60;;;14.90;55.20;;;;;;2383603;54;21516;-71
2022/09/23 08:26:52;;;;;;;3.58;1.90;;;15.00;55.30;;;;;;2314953;55;20952;-70
2022/09/23 08:29:21;;;;;;;3.22;1.58;;;15.10;55.40;;;;;;2335869;54;21016;-71
2022/09/23 08:31:48;;;;;;;3.83;1.65;;;15.20;55.40;;;;;;2331669;54;20965;-70
2022/09/23 08:34:16;;;;;;;3.50;1.80;;;15.30;55.40;;;;;;2330259;54;20965;-70
2022/09/23 08:36:43;;;;;;;3.58;1.60;;;15.40;55.50;;;;;;2310624;55;20976;-71
2022/09/23 08:39:24;;;;;;;3.87;1.95;;;15.50;55.60;;;;;;2315358;55;20953;-71
2022/09/23 08:42:15;;;;;;;2.90;1.50;;;15.60;56.10;;;;;;2312111;55;20965;-71
2022/09/23 08:45:03;;;;;;;2.47;1.15;;;15.70;56.10;;;;;;2311448;55;20944;-71
2022/09/23 08:47:46;;;;;;;3.15;1.40;;;15.80;55.80;;;;;;2411155;54;21070;-71
2022/09/23 08:50:22;;;;;;;5.45;1.40;;;15.90;55.60;;;;;;2314749;55;20969;-70
2022/09/23 08:52:59;;;;;;;3.00;1.37;;;16.10;55.50;;;;;;2315726;55;20949;-71
2022/09/23 08:55:32;;;;;;;2.85;1.17;;;16.10;55.40;;;;;;2309268;55;20965;-71
2022/09/23 08:58:42;;;;;;;2.97;1.30;;;16.20;55.40;;;;;;2304978;55;20989;-70
2022/09/23 09:01:44;;;;;;;2.40;0.90;;;16.40;55.60;;;;;;2310480;55;20957;-71
2022/09/23 09:04:53;;;;;;;2.93;1.10;;;16.50;55.20;;;;;;2294662;55;20949;-72
2022/09/23 09:07:22;;;;;;;2.47;1.00;;;16.60;55.10;;;;;;2315113;55;21025;-70
2022/09/23 09:10:18;;;;;;;2.80;1.20;;;16.70;55.00;;;;;;2315686;55;21498;-71
2022/09/23 09:13:05;;;;;;;2.42;1.23;;;16.80;55.10;;;;;;2307366;55;21347;-70
2022/09/23 09:15:31;;;;;;;2.37;1.05;;;16.90;55.30;;;;;;2311025;55;21400;-70
2022/09/23 09:18:20;;;;;;;3.37;1.30;;;17.00;55.10;;;;;;2311062;55;21067;-71
2022/09/23 09:20:56;;;;;;;3.08;1.40;;;17.10;55.00;;;;;;2536309;54;20949;-70
2022/09/23 09:26:51;;;;;;;3.80;1.23;;;17.40;54.80;;;;;;2555655;54;21872;-71
2022/09/23 09:29:19;;;;;;;2.90;1.25;;;17.50;54.80;;;;;;2316412;55;21403;-71
2022/09/23 09:32:23;;;;;;;3.53;1.25;;;17.60;54.80;;;;;;2538085;54;20990;-71
2022/09/23 09:34:53;;;;;;;2.60;1.10;;;17.70;55.00;;;;;;2278190;56;21068;-71
2022/09/23 09:37:31;;;;;;;3.80;1.33;;;17.80;54.90;;;;;;2543266;54;21005;-71
2022/09/23 09:39:57;;;;;;;3.45;1.15;;;17.90;54.70;;;;;;2312767;55;21620;-71
2022/09/23 09:42:26;;;;;;;3.58;1.30;;;18.00;54.70;;;;;;2294663;54;20948;-71
2022/09/23 09:45:03;;;;;;;3.17;1.23;;;18.10;54.50;;;;;;2309932;55;20964;-71
2022/09/23 09:51:17;;;;;;;2.08;1.08;;;18.40;54.70;;;;;;2314224;55;21390;-70
2022/09/23 09:53:52;;;;;;;3.60;1.05;;;18.50;54.70;;;;;;2291646;54;21003;-71
2022/09/23 09:56:25;;;;;;;1.90;0.85;;;18.60;54.50;;;;;;2300301;54;21487;-70
2022/09/23 09:59:07;;;;;;;2.58;1.20;;;18.70;54.50;;;;;;2296609;55;21072;-71
2022/09/23 10:01:33;;;;;;;3.20;1.12;;;18.80;54.30;;;;;;2367898;54;21991;-72
2022/09/23 10:04:00;;;;;;;2.53;1.00;;;18.90;54.30;;;;;;2310490;55;21021;-71
2022/09/23 10:07:05;;;;;;;2.55;1.27;;;19.00;54.20;;;;;;2293722;55;20962;-71
2022/09/23 10:09:50;;;;;;;3.97;1.08;;;19.10;53.90;;;;;;2304315;54;20978;-75
2022/09/23 10:12:20;;;;;;;3.35;1.17;;;19.20;53.90;;;;;;2307450;55;21059;-71
2022/09/23 10:14:50;;;;;;;2.58;1.12;;;19.30;53.90;;;;;;2314933;55;20958;-73
2022/09/23 10:17:27;;;;;;;4.53;1.33;;;19.40;53.90;;;;;;2312466;55;21928;-72
2022/09/23 10:19:59;;;;;;;3.62;1.40;;;19.50;53.70;;;;;;2307918;55;21020;-72
2022/09/23 10:22:32;;;;;;;3.37;1.50;;;19.50;53.50;;;;;;2305704;55;21905;-71
2022/09/23 10:25:06;;;;;;;3.90;1.40;;;19.60;53.60;;;;;;2296466;55;20973;-70
2022/09/23 10:27:34;;;;;;;3.62;1.50;;;19.70;53.70;;;;;;2298400;55;21062;-70
2022/09/23 10:35:16;;;;;;;3.03;1.30;;;19.80;53.80;;;;;;2444982;55;21038;-71
2022/09/23 10:37:53;;;;;;;2.28;1.08;;;20.10;53.80;;;;;;2315317;55;20944;-69
2022/09/23 10:53:46;;;;;;;2.55;1.08;;;20.40;53.30;;;;;;2307740;55;20965;-68
2022/09/23 10:56:28;;;;;;;2.60;1.12;;;20.60;53.30;;;;;;2316905;55;21069;-69
2022/09/23 10:59:59;;;;;;;3.33;1.37;;;20.70;53.00;;;;;;2308201;55;20964;-70
2022/09/23 11:10:08;;;;;;;2.55;1.23;;;20.80;52.50;;;;;;2309028;55;20972;-69
2022/09/23 11:13:03;;;;;;;3.17;0.95;;;20.90;52.90;;;;;;2299445;55;21025;-69
2022/09/23 11:19:20;;;;;;;2.97;1.17;;;21.20;52.80;;;;;;2312543;55;21421;-67
2022/09/23 11:21:57;;;;;;;2.75;1.20;;;21.40;52.80;;;;;;2311927;55;21584;-70
2022/09/23 11:24:33;;;;;;;2.45;1.15;;;21.40;52.60;;;;;;2310438;55;21566;-67
2022/09/23 11:28:49;;;;;;;2.25;1.00;;;21.50;52.40;;;;;;2304076;55;21727;-67
2022/09/23 11:32:19;;;;;;;4.10;1.10;;;21.60;51.90;;;;;;2362642;54;21004;-67
2022/09/23 11:37:25;;;;;;;2.53;1.15;;;21.70;52.10;;;;;;2310652;55;21005;-70
2022/09/23 11:40:20;;;;;;;2.53;0.90;;;21.90;52.00;;;;;;2413087;54;20930;-70
2022/09/23 11:43:50;;;;;;;1.80;0.90;;;21.90;51.50;;;;;;2387334;55;20976;-68
2022/09/23 11:50:26;;;;;;;2.87;0.90;;;22.10;50.70;;;;;;2381437;54;20961;-69
2022/09/23 11:54:25;;;;;;;2.62;1.25;;;22.20;51.00;;;;;;2308727;55;20956;-68
2022/09/23 11:57:20;;;;;;;2.17;0.90;;;22.30;50.90;;;;;;2315425;55;20973;-66
2022/09/23 11:59:55;;;;;;;3.05;1.40;;;22.40;50.90;;;;;;2314849;55;21148;-65
2022/09/23 12:02:32;;;;;;;2.60;1.00;;;22.40;50.80;;;;;;2314171;55;20988;-67
2022/09/23 12:05:01;;;;;;;3.17;1.20;;;22.50;50.80;;;;;;2311652;55;20952;-73
2022/09/23 12:12:52;;;;;;;2.47;1.30;;;22.50;50.60;;;;;;2312802;55;20957;-76
2022/09/23 12:15:46;;;;;;;2.08;1.00;;;22.60;50.10;;;;;;2315003;55;21414;-66
2022/09/23 12:18:41;;;;;;;2.10;0.80;;;22.80;50.30;;;;;;2309448;55;21005;-66
2022/09/23 12:32:41;;;;;;;1.98;0.90;;;22.80;50.40;;;;;;2307950;55;21033;-66
2022/09/23 12:35:34;;;;;;;2.30;0.95;;;22.90;50.40;;;;;;2315614;55;20965;-71
2022/09/23 12:38:00;;;;;;;2.75;1.00;;;23.20;49.70;;;;;;2522485;54;21005;-70
2022/09/23 12:40:31;;;;;;;2.15;1.00;;;23.20;50.00;;;;;;2308667;55;21101;-70
2022/09/23 12:43:01;;;;;;;3.00;1.00;;;23.20;49.90;;;;;;2303651;54;20996;-69
2022/09/23 12:45:37;;;;;;;2.40;1.17;;;23.20;49.90;;;;;;2337963;54;21088;-68
2022/09/23 12:50:44;;;;;;;2.85;0.88;;;23.30;49.20;;;;;;2315071;55;20937;-68
2022/09/23 12:55:00;;;;;;;2.33;0.98;;;23.40;49.20;;;;;;2308206;55;21017;-67
2022/09/23 12:57:57;;;;;;;2.12;0.75;;;23.50;48.90;;;;;;2315862;55;21466;-68
2022/09/23 13:00:24;;;;;;;1.73;0.85;;;23.60;48.90;;;;;;2296110;55;21093;-67
2022/09/23 13:08:43;;;;;;;2.50;0.90;;;23.80;48.90;;;;;;2547868;54;21427;-67
2022/09/23 13:11:29;;;;;;;3.62;1.00;;;23.80;49.10;;;;;;2314663;55;21004;-68
2022/09/23 13:13:59;;;;;;;2.03;0.90;;;23.80;47.70;;;;;;2348260;54;21017;-68
2022/09/23 13:16:32;;;;;;;2.58;1.00;;;23.90;48.30;;;;;;2309526;54;21425;-67
2022/09/23 13:19:04;;;;;;;2.25;0.85;;;23.90;48.20;;;;;;2550933;54;20966;-68
2022/09/23 13:23:38;;;;;;;1.92;0.80;;;24.00;48.70;;;;;;2311109;55;21017;-69
2022/09/23 13:26:09;;;;;;;2.00;0.80;;;24.10;48.40;;;;;;2539899;54;20964;-67
2022/09/23 13:28:52;;;;;;;2.15;0.70;;;24.10;48.00;;;;;;2314480;55;20961;-68
2022/09/23 13:31:21;;;;;;;2.03;0.77;;;24.20;47.60;;;;;;2315005;55;21013;-70
2022/09/23 13:33:53;;;;;;;2.62;1.00;;;24.20;47.80;;;;;;2409787;54;21032;-68
2022/09/23 13:36:19;;;;;;;1.87;0.82;;;24.20;47.70;;;;;;2315683;55;21604;-68
2022/09/23 13:39:46;;;;;;;1.83;0.77;;;24.20;47.70;;;;;;2318442;54;21088;-68
2022/09/23 13:42:25;;;;;;;1.95;0.80;;;24.30;47.10;;;;;;2303943;58;21160;-68
2022/09/23 13:44:56;;;;;;;3.10;0.75;;;24.30;47.10;;;;;;2287418;55;21018;-69
2022/09/23 13:47:24;;;;;;;3.10;0.77;;;24.30;47.00;;;;;;2323395;55;21016;-69
2022/09/23 13:49:50;;;;;;;1.73;0.60;;;24.40;47.10;;;;;;2292398;55;20988;-68
2022/09/23 13:52:28;;;;;;;1.83;0.70;;;24.30;46.90;;;;;;2313960;55;21550;-68
2022/09/23 13:54:54;;;;;;;2.50;0.60;;;24.40;46.50;;;;;;2292685;54;20957;-68
2022/09/23 13:57:31;;;;;;;2.17;0.77;;;24.40;46.90;;;;;;2313346;55;20944;-67
2022/09/23 14:01:24;;;;;;;2.00;0.80;;;24.40;46.60;;;;;;2313949;55;21244;-69
2022/09/23 14:04:24;;;;;;;1.80;0.70;;;24.40;46.40;;;;;;2289856;55;20994;-67
2022/09/23 14:06:51;;;;;;;1.15;0.57;;;24.50;46.00;;;;;;2299175;55;21447;-68
2022/09/23 14:09:26;;;;;;;1.65;0.60;;;24.50;46.60;;;;;;2301152;55;21575;-68
2022/09/23 14:11:52;;;;;;;2.12;0.95;;;24.50;46.30;;;;;;2365517;54;21008;-68
2022/09/23 14:14:23;;;;;;;1.33;0.60;;;24.50;46.30;;;;;;2314735;55;21009;-69
2022/09/23 14:17:24;;;;;;;2.45;0.70;;;24.50;45.70;;;;;;2487034;54;20929;-68
2022/09/23 14:19:51;;;;;;;1.50;0.60;;;24.50;45.50;;;;;;2553895;54;21394;-69
2022/09/23 14:22:25;;;;;;;2.50;0.70;;;24.50;45.90;;;;;;2315571;55;21391;-68
2022/09/23 14:25:13;;;;;;;2.87;0.70;;;24.50;45.70;;;;;;2516892;54;21394;-68
2022/09/23 14:27:43;;;;;;;1.77;0.68;;;24.40;45.30;;;;;;2309772;55;21339;-67
2022/09/23 14:30:17;;;;;;;1.73;0.65;;;24.40;45.80;;;;;;2389486;54;21017;-68
2022/09/23 14:32:43;;;;;;;1.52;0.70;;;24.40;45.60;;;;;;2287953;54;3337229;-70
2022/09/23 14:35:36;;;;;;;2.15;0.70;;;24.40;45.90;;;;;;2395386;54;21027;-68
2022/09/23 14:41:22;;;;;;;1.83;0.73;;;24.40;45.80;;;;;;2303823;55;21024;-70
2022/09/23 14:43:57;;;;;;;3.35;0.70;;;24.40;45.70;;;;;;2314797;55;20925;-69
2022/09/23 14:46:24;;;;;;;1.77;0.80;;;24.40;46.10;;;;;;2549663;54;20969;-68
2022/09/23 14:49:18;;;;;;;1.90;0.73;;;24.40;46.10;;;;;;2554888;54;20945;-68
2022/09/23 14:51:56;;;;;;;1.98;0.80;;;24.40;45.90;;;;;;2314916;55;20917;-67
2022/09/23 14:54:44;;;;;;;2.03;0.70;;;24.40;46.00;;;;;;2327753;54;21297;-69
2022/09/23 14:57:28;;;;;;;2.65;0.90;;;24.40;45.40;;;;;;2296641;55;20985;-68
2022/09/23 14:59:59;;;;;;;1.60;0.85;;;24.40;45.60;;;;;;2308710;55;21139;-70
2022/09/23 15:03:13;;;;;;;2.75;0.90;;;24.40;45.60;;;;;;2311233;55;20995;-68
2022/09/23 15:05:59;;;;;;;4.18;0.90;;;24.30;45.40;;;;;;2309541;55;21067;-71
2022/09/23 15:08:30;;;;;;;1.48;0.60;;;24.30;44.80;;;;;;2311531;55;20972;-69
2022/09/23 15:10:57;;;;;;;1.83;0.70;;;24.30;45.40;;;;;;2306175;55;20975;-69
2022/09/23 15:13:40;;;;;;;1.50;0.73;;;24.20;45.50;;;;;;2496391;54;22205;-68
2022/09/23 15:16:06;;;;;;;2.17;0.82;;;24.20;45.50;;;;;;2308204;55;20981;-70